sensor_id;sensor_type;location;lat;lon;timestamp;P1;durP1;ratioP1;P2;durP2;ratioP2
42338;SDS011;27993;45.392;10.918;2023-02-17T00:01:47;160.40;;;82.33;;
42338;SDS011;27993;45.392;10.918;2023-02-17T00:04:17;182.88;;;79.30;;
42338;SDS011;27993;45.392;10.918;2023-02-17T00:06:48;156.27;;;77.83;;
42338;SDS011;27993;45.392;10.918;2023-02-17T00:09:19;165.73;;;78.70;;
42338;SDS011;27993;45.392;10.918;2023-02-17T00:11:50;166.10;;;82.37;;
42338;SDS011;27993;45.392;10.918;2023-02-17T00:14:20;154.97;;;78.30;;
42338;SDS011;27993;45.392;10.918;2023-02-17T00:16:51;158.68;;;77.82;;
42338;SDS011;27993;45.392;10.918;2023-02-17T00:19:22;161.23;;;80.37;;
42338;SDS011;27993;45.392;10.918;2023-02-17T00:21:54;153.93;;;76.95;;
42338;SDS011;27993;45.392;10.918;2023-02-17T00:24:26;169.25;;;80.18;;
42338;SDS011;27993;45.392;10.918;2023-02-17T00:27:00;164.68;;;81.35;;
42338;SDS011;27993;45.392;10.918;2023-02-17T00:29:31;156.00;;;76.67;;
42338;SDS011;27993;45.392;10.918;2023-02-17T00:32:02;142.07;;;74.27;;
42338;SDS011;27993;45.392;10.918;2023-02-17T00:34:32;158.93;;;82.72;;
42338;SDS011;27993;45.392;10.918;2023-02-17T00:37:03;163.67;;;81.20;;
42338;SDS011;27993;45.392;10.918;2023-02-17T00:39:34;151.60;;;77.70;;
42338;SDS011;27993;45.392;10.918;2023-02-17T00:42:05;146.13;;;75.23;;
42338;SDS011;27993;45.392;10.918;2023-02-17T00:44:35;159.00;;;77.87;;
42338;SDS011;27993;45.392;10.918;2023-02-17T00:47:06;147.27;;;74.78;;
42338;SDS011;27993;45.392;10.918;2023-02-17T00:49:37;148.05;;;73.15;;
42338;SDS011;27993;45.392;10.918;2023-02-17T00:52:08;160.20;;;78.43;;
42338;SDS011;27993;45.392;10.918;2023-02-17T00:54:38;154.95;;;76.25;;
42338;SDS011;27993;45.392;10.918;2023-02-17T00:57:11;159.40;;;72.90;;
42338;SDS011;27993;45.392;10.918;2023-02-17T00:59:41;149.68;;;70.93;;
42338;SDS011;27993;45.392;10.918;2023-02-17T01:02:12;134.20;;;71.28;;
42338;SDS011;27993;45.392;10.918;2023-02-17T01:04:43;151.00;;;73.68;;
42338;SDS011;27993;45.392;10.918;2023-02-17T01:07:13;150.85;;;73.37;;
42338;SDS011;27993;45.392;10.918;2023-02-17T01:09:44;166.80;;;72.40;;
42338;SDS011;27993;45.392;10.918;2023-02-17T01:12:15;170.23;;;79.55;;
42338;SDS011;27993;45.392;10.918;2023-02-17T01:14:45;160.68;;;77.72;;
42338;SDS011;27993;45.392;10.918;2023-02-17T01:17:16;153.23;;;77.32;;
42338;SDS011;27993;45.392;10.918;2023-02-17T01:19:47;143.93;;;72.90;;
42338;SDS011;27993;45.392;10.918;2023-02-17T01:22:17;151.25;;;73.53;;
42338;SDS011;27993;45.392;10.918;2023-02-17T01:24:48;150.43;;;75.35;;
42338;SDS011;27993;45.392;10.918;2023-02-17T01:27:18;157.30;;;70.95;;
42338;SDS011;27993;45.392;10.918;2023-02-17T01:29:49;147.10;;;69.20;;
42338;SDS011;27993;45.392;10.918;2023-02-17T01:32:20;145.55;;;73.07;;
42338;SDS011;27993;45.392;10.918;2023-02-17T01:34:50;148.55;;;74.53;;
42338;SDS011;27993;45.392;10.918;2023-02-17T01:37:21;152.10;;;75.25;;
42338;SDS011;27993;45.392;10.918;2023-02-17T01:39:52;170.27;;;76.72;;
42338;SDS011;27993;45.392;10.918;2023-02-17T01:42:22;158.87;;;74.60;;
42338;SDS011;27993;45.392;10.918;2023-02-17T01:48:09;154.48;;;73.45;;
42338;SDS011;27993;45.392;10.918;2023-02-17T01:50:44;168.85;;;73.82;;
42338;SDS011;27993;45.392;10.918;2023-02-17T01:53:19;146.13;;;73.62;;
42338;SDS011;27993;45.392;10.918;2023-02-17T01:55:54;150.60;;;75.43;;
42338;SDS011;27993;45.392;10.918;2023-02-17T01:58:25;151.75;;;74.32;;
42338;SDS011;27993;45.392;10.918;2023-02-17T02:00:58;159.87;;;77.05;;
42338;SDS011;27993;45.392;10.918;2023-02-17T02:03:32;158.23;;;76.93;;
42338;SDS011;27993;45.392;10.918;2023-02-17T02:06:07;155.93;;;75.00;;
42338;SDS011;27993;45.392;10.918;2023-02-17T02:08:49;152.95;;;74.57;;
42338;SDS011;27993;45.392;10.918;2023-02-17T02:11:25;172.25;;;79.37;;
42338;SDS011;27993;45.392;10.918;2023-02-17T02:13:56;164.70;;;77.72;;
42338;SDS011;27993;45.392;10.918;2023-02-17T02:16:30;153.25;;;74.97;;
42338;SDS011;27993;45.392;10.918;2023-02-17T02:24:31;161.77;;;77.60;;
42338;SDS011;27993;45.392;10.918;2023-02-17T02:27:25;168.27;;;77.75;;
42338;SDS011;27993;45.392;10.918;2023-02-17T02:30:02;140.25;;;72.70;;
42338;SDS011;27993;45.392;10.918;2023-02-17T02:38:09;122.85;;;65.87;;
42338;SDS011;27993;45.392;10.918;2023-02-17T02:40:48;123.45;;;63.38;;
42338;SDS011;27993;45.392;10.918;2023-02-17T02:43:24;107.25;;;58.05;;
42338;SDS011;27993;45.392;10.918;2023-02-17T02:45:55;96.68;;;55.80;;
42338;SDS011;27993;45.392;10.918;2023-02-17T02:48:26;100.65;;;53.80;;
42338;SDS011;27993;45.392;10.918;2023-02-17T03:02:08;83.60;;;47.42;;
42338;SDS011;27993;45.392;10.918;2023-02-17T03:04:47;79.03;;;44.85;;
42338;SDS011;27993;45.392;10.918;2023-02-17T03:07:29;91.72;;;47.65;;
42338;SDS011;27993;45.392;10.918;2023-02-17T03:10:04;91.68;;;47.45;;
42338;SDS011;27993;45.392;10.918;2023-02-17T03:12:35;94.72;;;48.90;;
42338;SDS011;27993;45.392;10.918;2023-02-17T03:17:57;95.82;;;50.30;;
42338;SDS011;27993;45.392;10.918;2023-02-17T03:20:29;96.82;;;50.30;;
42338;SDS011;27993;45.392;10.918;2023-02-17T03:23:05;91.78;;;47.38;;
42338;SDS011;27993;45.392;10.918;2023-02-17T03:25:36;96.45;;;49.63;;
42338;SDS011;27993;45.392;10.918;2023-02-17T03:28:07;100.22;;;51.37;;
42338;SDS011;27993;45.392;10.918;2023-02-17T03:30:37;79.60;;;43.70;;
42338;SDS011;27993;45.392;10.918;2023-02-17T03:33:08;87.53;;;43.90;;
42338;SDS011;27993;45.392;10.918;2023-02-17T03:35:39;79.37;;;40.83;;
42338;SDS011;27993;45.392;10.918;2023-02-17T03:38:09;62.65;;;39.08;;
42338;SDS011;27993;45.392;10.918;2023-02-17T03:40:40;68.45;;;40.55;;
42338;SDS011;27993;45.392;10.918;2023-02-17T03:43:10;66.55;;;40.35;;
42338;SDS011;27993;45.392;10.918;2023-02-17T03:45:41;70.70;;;39.58;;
42338;SDS011;27993;45.392;10.918;2023-02-17T03:48:12;80.03;;;39.40;;
42338;SDS011;27993;45.392;10.918;2023-02-17T03:50:42;56.42;;;33.55;;
42338;SDS011;27993;45.392;10.918;2023-02-17T03:53:13;57.42;;;33.92;;
42338;SDS011;27993;45.392;10.918;2023-02-17T03:55:44;54.80;;;35.15;;
42338;SDS011;27993;45.392;10.918;2023-02-17T03:58:14;63.92;;;36.33;;
42338;SDS011;27993;45.392;10.918;2023-02-17T04:00:45;59.17;;;34.05;;
42338;SDS011;27993;45.392;10.918;2023-02-17T04:03:15;61.17;;;33.75;;
42338;SDS011;27993;45.392;10.918;2023-02-17T04:05:46;57.10;;;32.90;;
42338;SDS011;27993;45.392;10.918;2023-02-17T04:08:17;63.50;;;36.40;;
42338;SDS011;27993;45.392;10.918;2023-02-17T04:10:54;59.13;;;33.80;;
42338;SDS011;27993;45.392;10.918;2023-02-17T04:13:26;54.70;;;34.35;;
42338;SDS011;27993;45.392;10.918;2023-02-17T04:15:57;53.28;;;34.17;;
42338;SDS011;27993;45.392;10.918;2023-02-17T04:18:30;55.38;;;35.42;;
42338;SDS011;27993;45.392;10.918;2023-02-17T04:21:01;58.05;;;32.65;;
42338;SDS011;27993;45.392;10.918;2023-02-17T04:23:33;56.53;;;33.88;;
42338;SDS011;27993;45.392;10.918;2023-02-17T04:26:09;50.53;;;30.98;;
42338;SDS011;27993;45.392;10.918;2023-02-17T04:28:40;54.13;;;31.80;;
42338;SDS011;27993;45.392;10.918;2023-02-17T04:31:11;49.67;;;32.53;;
42338;SDS011;27993;45.392;10.918;2023-02-17T04:33:42;51.97;;;32.35;;
42338;SDS011;27993;45.392;10.918;2023-02-17T04:36:13;50.92;;;33.88;;
42338;SDS011;27993;45.392;10.918;2023-02-17T04:38:43;50.90;;;31.48;;
42338;SDS011;27993;45.392;10.918;2023-02-17T04:41:14;73.97;;;30.12;;
42338;SDS011;27993;45.392;10.918;2023-02-17T04:43:44;47.13;;;30.90;;
42338;SDS011;27993;45.392;10.918;2023-02-17T04:46:15;39.65;;;28.27;;
42338;SDS011;27993;45.392;10.918;2023-02-17T04:48:46;50.65;;;31.70;;
42338;SDS011;27993;45.392;10.918;2023-02-17T04:51:16;47.45;;;29.73;;
42338;SDS011;27993;45.392;10.918;2023-02-17T04:53:47;50.97;;;28.80;;
42338;SDS011;27993;45.392;10.918;2023-02-17T04:56:18;48.45;;;31.90;;
42338;SDS011;27993;45.392;10.918;2023-02-17T04:58:48;51.92;;;30.95;;
42338;SDS011;27993;45.392;10.918;2023-02-17T05:01:19;50.70;;;31.92;;
42338;SDS011;27993;45.392;10.918;2023-02-17T05:03:49;46.83;;;29.80;;
42338;SDS011;27993;45.392;10.918;2023-02-17T05:06:20;54.38;;;31.25;;
42338;SDS011;27993;45.392;10.918;2023-02-17T05:08:51;59.20;;;31.30;;
42338;SDS011;27993;45.392;10.918;2023-02-17T05:11:23;62.78;;;35.00;;
42338;SDS011;27993;45.392;10.918;2023-02-17T05:13:53;63.65;;;35.30;;
42338;SDS011;27993;45.392;10.918;2023-02-17T05:16:24;60.65;;;36.20;;
42338;SDS011;27993;45.392;10.918;2023-02-17T05:18:55;63.75;;;36.35;;
42338;SDS011;27993;45.392;10.918;2023-02-17T05:21:25;64.60;;;35.97;;
42338;SDS011;27993;45.392;10.918;2023-02-17T05:23:56;64.90;;;32.60;;
42338;SDS011;27993;45.392;10.918;2023-02-17T05:26:27;60.38;;;34.75;;
42338;SDS011;27993;45.392;10.918;2023-02-17T05:28:57;67.45;;;35.08;;
42338;SDS011;27993;45.392;10.918;2023-02-17T05:31:28;90.60;;;36.42;;
42338;SDS011;27993;45.392;10.918;2023-02-17T05:33:59;69.32;;;35.70;;
42338;SDS011;27993;45.392;10.918;2023-02-17T05:36:29;80.80;;;37.97;;
42338;SDS011;27993;45.392;10.918;2023-02-17T05:39:00;78.90;;;39.38;;
42338;SDS011;27993;45.392;10.918;2023-02-17T05:41:31;69.07;;;37.80;;
42338;SDS011;27993;45.392;10.918;2023-02-17T05:44:01;61.90;;;36.20;;
42338;SDS011;27993;45.392;10.918;2023-02-17T05:46:32;61.63;;;34.30;;
42338;SDS011;27993;45.392;10.918;2023-02-17T05:49:02;56.00;;;33.92;;
42338;SDS011;27993;45.392;10.918;2023-02-17T05:51:33;69.10;;;35.70;;
42338;SDS011;27993;45.392;10.918;2023-02-17T05:54:04;65.35;;;37.85;;
42338;SDS011;27993;45.392;10.918;2023-02-17T05:56:35;63.08;;;34.78;;
42338;SDS011;27993;45.392;10.918;2023-02-17T05:59:06;54.55;;;33.08;;
42338;SDS011;27993;45.392;10.918;2023-02-17T06:01:36;52.90;;;32.78;;
42338;SDS011;27993;45.392;10.918;2023-02-17T06:04:07;68.60;;;35.72;;
42338;SDS011;27993;45.392;10.918;2023-02-17T06:06:37;74.20;;;35.80;;
42338;SDS011;27993;45.392;10.918;2023-02-17T06:09:08;70.10;;;34.35;;
42338;SDS011;27993;45.392;10.918;2023-02-17T06:11:39;65.32;;;33.85;;
42338;SDS011;27993;45.392;10.918;2023-02-17T06:14:09;56.28;;;33.17;;
42338;SDS011;27993;45.392;10.918;2023-02-17T06:16:40;69.93;;;34.80;;
42338;SDS011;27993;45.392;10.918;2023-02-17T06:19:11;68.45;;;34.47;;
42338;SDS011;27993;45.392;10.918;2023-02-17T06:21:41;59.72;;;34.10;;
42338;SDS011;27993;45.392;10.918;2023-02-17T06:24:12;69.10;;;33.50;;
42338;SDS011;27993;45.392;10.918;2023-02-17T06:26:42;66.93;;;34.72;;
42338;SDS011;27993;45.392;10.918;2023-02-17T06:29:13;78.62;;;38.28;;
42338;SDS011;27993;45.392;10.918;2023-02-17T06:31:44;84.60;;;36.72;;
42338;SDS011;27993;45.392;10.918;2023-02-17T06:34:14;126.82;;;44.47;;
42338;SDS011;27993;45.392;10.918;2023-02-17T06:36:45;112.00;;;40.42;;
42338;SDS011;27993;45.392;10.918;2023-02-17T06:39:16;117.70;;;47.38;;
42338;SDS011;27993;45.392;10.918;2023-02-17T06:41:46;133.10;;;51.25;;
42338;SDS011;27993;45.392;10.918;2023-02-17T06:44:17;149.95;;;54.13;;
42338;SDS011;27993;45.392;10.918;2023-02-17T06:46:48;142.10;;;53.03;;
42338;SDS011;27993;45.392;10.918;2023-02-17T06:49:18;76.25;;;35.90;;
42338;SDS011;27993;45.392;10.918;2023-02-17T06:51:49;68.35;;;37.45;;
42338;SDS011;27993;45.392;10.918;2023-02-17T06:54:20;58.75;;;35.42;;
42338;SDS011;27993;45.392;10.918;2023-02-17T06:56:50;59.08;;;33.67;;
42338;SDS011;27993;45.392;10.918;2023-02-17T06:59:21;55.55;;;33.83;;
42338;SDS011;27993;45.392;10.918;2023-02-17T07:01:51;56.95;;;34.03;;
42338;SDS011;27993;45.392;10.918;2023-02-17T07:04:22;61.55;;;35.38;;
42338;SDS011;27993;45.392;10.918;2023-02-17T07:06:53;55.75;;;31.25;;
42338;SDS011;27993;45.392;10.918;2023-02-17T07:09:23;60.40;;;34.75;;
42338;SDS011;27993;45.392;10.918;2023-02-17T07:11:54;62.47;;;38.17;;
42338;SDS011;27993;45.392;10.918;2023-02-17T07:14:26;80.07;;;37.63;;
42338;SDS011;27993;45.392;10.918;2023-02-17T07:16:57;82.10;;;43.13;;
42338;SDS011;27993;45.392;10.918;2023-02-17T07:19:28;74.97;;;40.95;;
42338;SDS011;27993;45.392;10.918;2023-02-17T07:21:58;106.35;;;45.95;;
42338;SDS011;27993;45.392;10.918;2023-02-17T07:24:29;79.93;;;42.35;;
42338;SDS011;27993;45.392;10.918;2023-02-17T07:27:00;77.80;;;42.75;;
42338;SDS011;27993;45.392;10.918;2023-02-17T07:29:31;70.32;;;41.20;;
42338;SDS011;27993;45.392;10.918;2023-02-17T07:32:01;81.47;;;43.40;;
42338;SDS011;27993;45.392;10.918;2023-02-17T07:34:32;72.10;;;46.35;;
42338;SDS011;27993;45.392;10.918;2023-02-17T07:37:02;80.03;;;44.65;;
42338;SDS011;27993;45.392;10.918;2023-02-17T07:39:34;82.35;;;45.72;;
42338;SDS011;27993;45.392;10.918;2023-02-17T07:42:05;72.72;;;43.22;;
42338;SDS011;27993;45.392;10.918;2023-02-17T07:44:35;83.18;;;44.50;;
42338;SDS011;27993;45.392;10.918;2023-02-17T07:47:06;75.77;;;42.37;;
42338;SDS011;27993;45.392;10.918;2023-02-17T07:49:37;75.60;;;43.45;;
42338;SDS011;27993;45.392;10.918;2023-02-17T07:52:07;75.47;;;46.43;;
42338;SDS011;27993;45.392;10.918;2023-02-17T07:54:38;86.07;;;48.03;;
42338;SDS011;27993;45.392;10.918;2023-02-17T07:57:08;82.93;;;50.10;;
42338;SDS011;27993;45.392;10.918;2023-02-17T07:59:39;85.53;;;48.80;;
42338;SDS011;27993;45.392;10.918;2023-02-17T08:02:10;77.00;;;47.13;;
42338;SDS011;27993;45.392;10.918;2023-02-17T08:04:41;84.43;;;52.15;;
42338;SDS011;27993;45.392;10.918;2023-02-17T08:07:12;94.90;;;53.17;;
42338;SDS011;27993;45.392;10.918;2023-02-17T08:09:43;100.00;;;58.60;;
42338;SDS011;27993;45.392;10.918;2023-02-17T08:12:49;86.18;;;52.97;;
42338;SDS011;27993;45.392;10.918;2023-02-17T08:15:31;101.72;;;53.78;;
42338;SDS011;27993;45.392;10.918;2023-02-17T08:18:02;92.25;;;52.83;;
42338;SDS011;27993;45.392;10.918;2023-02-17T08:20:35;94.82;;;54.13;;
42338;SDS011;27993;45.392;10.918;2023-02-17T08:23:06;96.53;;;53.07;;
42338;SDS011;27993;45.392;10.918;2023-02-17T08:25:36;98.77;;;55.00;;
42338;SDS011;27993;45.392;10.918;2023-02-17T08:28:07;111.23;;;59.40;;
42338;SDS011;27993;45.392;10.918;2023-02-17T08:30:40;89.43;;;56.05;;
42338;SDS011;27993;45.392;10.918;2023-02-17T08:33:11;109.87;;;57.53;;
42338;SDS011;27993;45.392;10.918;2023-02-17T08:35:46;104.40;;;59.53;;
42338;SDS011;27993;45.392;10.918;2023-02-17T08:38:17;108.07;;;61.20;;
42338;SDS011;27993;45.392;10.918;2023-02-17T08:40:48;99.13;;;58.60;;
42338;SDS011;27993;45.392;10.918;2023-02-17T08:43:18;99.20;;;60.80;;
42338;SDS011;27993;45.392;10.918;2023-02-17T08:45:49;103.43;;;62.40;;
42338;SDS011;27993;45.392;10.918;2023-02-17T08:48:20;92.00;;;63.07;;
42338;SDS011;27993;45.392;10.918;2023-02-17T08:50:50;156.37;;;68.20;;
42338;SDS011;27993;45.392;10.918;2023-02-17T08:53:21;161.93;;;73.93;;
42338;SDS011;27993;45.392;10.918;2023-02-17T08:55:51;135.60;;;66.97;;
42338;SDS011;27993;45.392;10.918;2023-02-17T08:58:22;108.00;;;67.43;;
42338;SDS011;27993;45.392;10.918;2023-02-17T09:00:53;96.83;;;64.47;;
42338;SDS011;27993;45.392;10.918;2023-02-17T09:03:23;102.25;;;67.75;;
42338;SDS011;27993;45.392;10.918;2023-02-17T09:05:55;95.03;;;65.40;;
42338;SDS011;27993;45.392;10.918;2023-02-17T09:08:26;120.13;;;74.45;;
42338;SDS011;27993;45.392;10.918;2023-02-17T09:10:57;106.25;;;71.68;;
42338;SDS011;27993;45.392;10.918;2023-02-17T09:13:28;125.20;;;80.62;;
42338;SDS011;27993;45.392;10.918;2023-02-17T09:15:59;130.68;;;88.65;;
42338;SDS011;27993;45.392;10.918;2023-02-17T09:18:30;124.53;;;82.82;;
42338;SDS011;27993;45.392;10.918;2023-02-17T09:21:07;136.60;;;87.20;;
42338;SDS011;27993;45.392;10.918;2023-02-17T09:23:40;130.75;;;89.28;;
42338;SDS011;27993;45.392;10.918;2023-02-17T09:26:12;137.77;;;91.37;;
42338;SDS011;27993;45.392;10.918;2023-02-17T09:28:44;121.03;;;86.10;;
42338;SDS011;27993;45.392;10.918;2023-02-17T09:31:19;130.43;;;83.90;;
42338;SDS011;27993;45.392;10.918;2023-02-17T09:33:52;125.50;;;92.22;;
42338;SDS011;27993;45.392;10.918;2023-02-17T09:36:25;125.30;;;88.70;;
42338;SDS011;27993;45.392;10.918;2023-02-17T09:38:59;150.02;;;96.60;;
42338;SDS011;27993;45.392;10.918;2023-02-17T09:44:18;156.02;;;103.55;;
42338;SDS011;27993;45.392;10.918;2023-02-17T09:47:16;144.20;;;100.78;;
42338;SDS011;27993;45.392;10.918;2023-02-17T09:49:53;144.05;;;98.35;;
42338;SDS011;27993;45.392;10.918;2023-02-17T09:52:34;150.55;;;99.53;;
42338;SDS011;27993;45.392;10.918;2023-02-17T09:55:24;158.02;;;106.68;;
42338;SDS011;27993;45.392;10.918;2023-02-17T09:58:01;156.00;;;105.10;;
42338;SDS011;27993;45.392;10.918;2023-02-17T10:00:54;206.87;;;115.40;;
42338;SDS011;27993;45.392;10.918;2023-02-17T10:08:49;160.07;;;105.35;;
42338;SDS011;27993;45.392;10.918;2023-02-17T10:11:38;148.40;;;105.30;;
42338;SDS011;27993;45.392;10.918;2023-02-17T10:14:18;151.50;;;104.25;;
42338;SDS011;27993;45.392;10.918;2023-02-17T10:17:02;152.87;;;106.12;;
42338;SDS011;27993;45.392;10.918;2023-02-17T10:19:50;154.40;;;104.57;;
42338;SDS011;27993;45.392;10.918;2023-02-17T10:22:41;140.07;;;99.82;;
42338;SDS011;27993;45.392;10.918;2023-02-17T10:25:15;153.70;;;109.20;;
42338;SDS011;27993;45.392;10.918;2023-02-17T10:27:51;136.48;;;100.90;;
42338;SDS011;27993;45.392;10.918;2023-02-17T10:30:46;146.70;;;107.60;;
42338;SDS011;27993;45.392;10.918;2023-02-17T10:33:34;141.30;;;99.62;;
42338;SDS011;27993;45.392;10.918;2023-02-17T10:36:09;164.75;;;109.35;;
42338;SDS011;27993;45.392;10.918;2023-02-17T10:41:47;154.98;;;106.85;;
42338;SDS011;27993;45.392;10.918;2023-02-17T10:44:21;144.25;;;104.07;;
42338;SDS011;27993;45.392;10.918;2023-02-17T10:46:53;134.70;;;97.68;;
42338;SDS011;27993;45.392;10.918;2023-02-17T10:52:00;131.55;;;97.85;;
42338;SDS011;27993;45.392;10.918;2023-02-17T10:54:34;138.50;;;97.40;;
42338;SDS011;27993;45.392;10.918;2023-02-17T10:57:09;154.73;;;108.87;;
42338;SDS011;27993;45.392;10.918;2023-02-17T10:59:43;162.88;;;107.57;;
42338;SDS011;27993;45.392;10.918;2023-02-17T11:05:20;155.32;;;99.20;;
42338;SDS011;27993;45.392;10.918;2023-02-17T11:07:53;152.73;;;101.93;;
42338;SDS011;27993;45.392;10.918;2023-02-17T11:10:36;154.50;;;105.82;;
42338;SDS011;27993;45.392;10.918;2023-02-17T11:13:43;145.82;;;104.30;;
42338;SDS011;27993;45.392;10.918;2023-02-17T11:16:24;150.90;;;107.93;;
42338;SDS011;27993;45.392;10.918;2023-02-17T11:18:57;161.30;;;108.63;;
42338;SDS011;27993;45.392;10.918;2023-02-17T11:21:28;159.90;;;99.15;;
42338;SDS011;27993;45.392;10.918;2023-02-17T11:24:00;144.98;;;101.43;;
42338;SDS011;27993;45.392;10.918;2023-02-17T11:26:34;156.73;;;98.03;;
42338;SDS011;27993;45.392;10.918;2023-02-17T11:29:06;139.15;;;98.18;;
42338;SDS011;27993;45.392;10.918;2023-02-17T11:31:38;142.70;;;95.70;;
42338;SDS011;27993;45.392;10.918;2023-02-17T11:34:12;137.10;;;93.03;;
42338;SDS011;27993;45.392;10.918;2023-02-17T11:36:44;145.77;;;92.85;;
42338;SDS011;27993;45.392;10.918;2023-02-17T11:39:26;139.35;;;92.05;;
42338;SDS011;27993;45.392;10.918;2023-02-17T11:41:57;131.73;;;88.62;;
42338;SDS011;27993;45.392;10.918;2023-02-17T11:44:28;136.88;;;90.30;;
42338;SDS011;27993;45.392;10.918;2023-02-17T11:47:02;136.37;;;89.15;;
42338;SDS011;27993;45.392;10.918;2023-02-17T11:52:24;129.52;;;87.20;;
42338;SDS011;27993;45.392;10.918;2023-02-17T11:55:15;122.40;;;85.68;;
42338;SDS011;27993;45.392;10.918;2023-02-17T11:57:54;120.40;;;83.53;;
42338;SDS011;27993;45.392;10.918;2023-02-17T12:00:44;110.20;;;80.97;;
42338;SDS011;27993;45.392;10.918;2023-02-17T12:03:42;105.55;;;74.28;;
42338;SDS011;27993;45.392;10.918;2023-02-17T12:18:13;96.18;;;61.92;;
42338;SDS011;27993;45.392;10.918;2023-02-17T12:21:08;89.53;;;60.50;;
42338;SDS011;27993;45.392;10.918;2023-02-17T12:24:04;84.13;;;54.70;;
42338;SDS011;27993;45.392;10.918;2023-02-17T12:26:49;86.93;;;56.60;;
42338;SDS011;27993;45.392;10.918;2023-02-17T12:35:15;70.32;;;47.22;;
42338;SDS011;27993;45.392;10.918;2023-02-17T12:38:08;72.75;;;46.70;;
42338;SDS011;27993;45.392;10.918;2023-02-17T12:43:54;67.70;;;46.33;;
42338;SDS011;27993;45.392;10.918;2023-02-17T12:46:39;79.55;;;47.20;;
42338;SDS011;27993;45.392;10.918;2023-02-17T12:49:16;54.17;;;34.03;;
42338;SDS011;27993;45.392;10.918;2023-02-17T12:51:49;52.53;;;32.92;;
42338;SDS011;27993;45.392;10.918;2023-02-17T12:54:39;47.00;;;32.38;;
42338;SDS011;27993;45.392;10.918;2023-02-17T12:57:17;45.60;;;30.45;;
42338;SDS011;27993;45.392;10.918;2023-02-17T12:59:55;49.75;;;30.27;;
42338;SDS011;27993;45.392;10.918;2023-02-17T13:02:27;28.75;;;18.40;;
42338;SDS011;27993;45.392;10.918;2023-02-17T13:04:59;28.33;;;18.80;;
42338;SDS011;27993;45.392;10.918;2023-02-17T13:10:18;26.02;;;18.95;;
42338;SDS011;27993;45.392;10.918;2023-02-17T13:13:00;25.33;;;19.67;;
42338;SDS011;27993;45.392;10.918;2023-02-17T13:15:37;29.55;;;16.25;;
42338;SDS011;27993;45.392;10.918;2023-02-17T13:18:35;22.67;;;15.35;;
42338;SDS011;27993;45.392;10.918;2023-02-17T13:24:04;18.15;;;15.23;;
42338;SDS011;27993;45.392;10.918;2023-02-17T13:26:54;21.55;;;16.17;;
42338;SDS011;27993;45.392;10.918;2023-02-17T13:31:56;21.73;;;15.23;;
42338;SDS011;27993;45.392;10.918;2023-02-17T13:34:33;30.60;;;15.73;;
42338;SDS011;27993;45.392;10.918;2023-02-17T13:37:18;19.33;;;14.73;;
42338;SDS011;27993;45.392;10.918;2023-02-17T13:40:24;19.33;;;13.85;;
42338;SDS011;27993;45.392;10.918;2023-02-17T13:42:53;18.83;;;14.25;;
42338;SDS011;27993;45.392;10.918;2023-02-17T13:45:48;30.67;;;13.70;;
42338;SDS011;27993;45.392;10.918;2023-02-17T13:48:27;22.25;;;13.50;;
42338;SDS011;27993;45.392;10.918;2023-02-17T13:51:05;23.75;;;14.10;;
42338;SDS011;27993;45.392;10.918;2023-02-17T13:53:39;19.27;;;14.25;;
42338;SDS011;27993;45.392;10.918;2023-02-17T13:56:22;16.42;;;13.62;;
42338;SDS011;27993;45.392;10.918;2023-02-17T13:58:54;21.15;;;14.48;;
42338;SDS011;27993;45.392;10.918;2023-02-17T14:01:40;22.20;;;13.80;;
42338;SDS011;27993;45.392;10.918;2023-02-17T14:04:16;17.80;;;13.20;;
42338;SDS011;27993;45.392;10.918;2023-02-17T14:06:55;20.30;;;13.50;;
42338;SDS011;27993;45.392;10.918;2023-02-17T14:09:29;18.50;;;14.10;;
42338;SDS011;27993;45.392;10.918;2023-02-17T14:12:02;23.08;;;14.07;;
42338;SDS011;27993;45.392;10.918;2023-02-17T14:14:35;19.98;;;15.27;;
42338;SDS011;27993;45.392;10.918;2023-02-17T14:17:12;19.77;;;12.88;;
42338;SDS011;27993;45.392;10.918;2023-02-17T14:19:56;15.57;;;12.10;;
42338;SDS011;27993;45.392;10.918;2023-02-17T14:25:10;19.13;;;12.40;;
42338;SDS011;27993;45.392;10.918;2023-02-17T14:27:44;22.67;;;13.25;;
42338;SDS011;27993;45.392;10.918;2023-02-17T14:30:36;18.08;;;13.30;;
42338;SDS011;27993;45.392;10.918;2023-02-17T14:38:28;16.95;;;12.75;;
42338;SDS011;27993;45.392;10.918;2023-02-17T14:41:01;18.00;;;13.40;;
42338;SDS011;27993;45.392;10.918;2023-02-17T14:43:35;22.27;;;12.60;;
42338;SDS011;27993;45.392;10.918;2023-02-17T14:46:06;23.83;;;13.45;;
42338;SDS011;27993;45.392;10.918;2023-02-17T14:48:36;20.40;;;13.03;;
42338;SDS011;27993;45.392;10.918;2023-02-17T14:51:10;17.23;;;13.50;;
42338;SDS011;27993;45.392;10.918;2023-02-17T14:53:49;21.42;;;14.40;;
42338;SDS011;27993;45.392;10.918;2023-02-17T14:58:54;21.02;;;15.93;;
42338;SDS011;27993;45.392;10.918;2023-02-17T15:03:56;20.60;;;14.17;;
42338;SDS011;27993;45.392;10.918;2023-02-17T15:06:36;23.35;;;13.48;;
42338;SDS011;27993;45.392;10.918;2023-02-17T15:09:13;19.10;;;14.30;;
42338;SDS011;27993;45.392;10.918;2023-02-17T15:11:45;21.52;;;15.25;;
42338;SDS011;27993;45.392;10.918;2023-02-17T15:14:18;20.62;;;14.65;;
42338;SDS011;27993;45.392;10.918;2023-02-17T15:16:50;25.95;;;15.70;;
42338;SDS011;27993;45.392;10.918;2023-02-17T15:19:20;18.73;;;15.10;;
42338;SDS011;27993;45.392;10.918;2023-02-17T15:21:51;21.27;;;14.20;;
42338;SDS011;27993;45.392;10.918;2023-02-17T15:24:23;21.40;;;15.05;;
42338;SDS011;27993;45.392;10.918;2023-02-17T15:26:55;23.20;;;15.25;;
42338;SDS011;27993;45.392;10.918;2023-02-17T15:29:26;27.27;;;15.05;;
42338;SDS011;27993;45.392;10.918;2023-02-17T15:31:58;28.85;;;14.90;;
42338;SDS011;27993;45.392;10.918;2023-02-17T15:34:31;25.17;;;14.40;;
42338;SDS011;27993;45.392;10.918;2023-02-17T15:37:02;25.98;;;15.80;;
42338;SDS011;27993;45.392;10.918;2023-02-17T15:39:33;21.63;;;16.17;;
42338;SDS011;27993;45.392;10.918;2023-02-17T15:42:05;21.80;;;16.27;;
42338;SDS011;27993;45.392;10.918;2023-02-17T15:44:41;26.02;;;16.73;;
42338;SDS011;27993;45.392;10.918;2023-02-17T15:47:18;25.70;;;15.80;;
42338;SDS011;27993;45.392;10.918;2023-02-17T15:49:50;26.05;;;16.45;;
42338;SDS011;27993;45.392;10.918;2023-02-17T15:52:20;32.03;;;17.10;;
42338;SDS011;27993;45.392;10.918;2023-02-17T15:54:51;26.63;;;16.60;;
42338;SDS011;27993;45.392;10.918;2023-02-17T15:57:23;24.37;;;15.98;;
42338;SDS011;27993;45.392;10.918;2023-02-17T15:59:54;25.42;;;14.45;;
42338;SDS011;27993;45.392;10.918;2023-02-17T16:02:25;27.13;;;18.37;;
42338;SDS011;27993;45.392;10.918;2023-02-17T16:04:55;24.00;;;15.50;;
42338;SDS011;27993;45.392;10.918;2023-02-17T16:07:26;24.40;;;16.50;;
42338;SDS011;27993;45.392;10.918;2023-02-17T16:09:57;23.70;;;16.33;;
42338;SDS011;27993;45.392;10.918;2023-02-17T16:12:27;21.53;;;15.67;;